sensor_id;sensor_type;location;lat;lon;timestamp;P1;durP1;ratioP1;P2;durP2;ratioP2
64832;SDS011;51290;45.060;38.948;2023-08-20T00:01:29;7.65;;;4.10;;
64832;SDS011;51290;45.060;38.948;2023-08-20T00:03:55;7.53;;;3.90;;
64832;SDS011;51290;45.060;38.948;2023-08-20T00:06:22;6.88;;;4.13;;
64832;SDS011;51290;45.060;38.948;2023-08-20T00:08:49;6.30;;;3.95;;
64832;SDS011;51290;45.060;38.948;2023-08-20T00:11:15;8.45;;;4.07;;
64832;SDS011;51290;45.060;38.948;2023-08-20T00:13:42;6.13;;;3.80;;
64832;SDS011;51290;45.060;38.948;2023-08-20T00:16:08;11.95;;;4.05;;
64832;SDS011;51290;45.060;38.948;2023-08-20T00:18:35;5.95;;;3.78;;
64832;SDS011;51290;45.060;38.948;2023-08-20T00:21:01;11.98;;;4.13;;
64832;SDS011;51290;45.060;38.948;2023-08-20T00:23:28;14.82;;;4.10;;
64832;SDS011;51290;45.060;38.948;2023-08-20T00:25:54;9.27;;;4.32;;
64832;SDS011;51290;45.060;38.948;2023-08-20T00:28:20;8.57;;;4.22;;
64832;SDS011;51290;45.060;38.948;2023-08-20T00:30:46;6.72;;;3.78;;
64832;SDS011;51290;45.060;38.948;2023-08-20T00:33:14;11.50;;;4.63;;
64832;SDS011;51290;45.060;38.948;2023-08-20T00:35:40;10.10;;;4.43;;
64832;SDS011;51290;45.060;38.948;2023-08-20T00:38:08;14.95;;;4.30;;
64832;SDS011;51290;45.060;38.948;2023-08-20T00:40:34;8.77;;;4.20;;
64832;SDS011;51290;45.060;38.948;2023-08-20T00:43:00;8.18;;;4.05;;
64832;SDS011;51290;45.060;38.948;2023-08-20T00:45:26;11.32;;;4.20;;
64832;SDS011;51290;45.060;38.948;2023-08-20T00:47:52;7.28;;;4.13;;
64832;SDS011;51290;45.060;38.948;2023-08-20T00:50:19;8.25;;;4.65;;
64832;SDS011;51290;45.060;38.948;2023-08-20T00:52:45;9.02;;;4.53;;
64832;SDS011;51290;45.060;38.948;2023-08-20T00:55:12;10.90;;;3.65;;
64832;SDS011;51290;45.060;38.948;2023-08-20T00:57:39;6.78;;;4.75;;
64832;SDS011;51290;45.060;38.948;2023-08-20T01:00:06;9.07;;;4.28;;
64832;SDS011;51290;45.060;38.948;2023-08-20T01:02:37;7.70;;;3.95;;
64832;SDS011;51290;45.060;38.948;2023-08-20T01:05:05;7.90;;;3.97;;
64832;SDS011;51290;45.060;38.948;2023-08-20T01:10:33;6.60;;;3.55;;
64832;SDS011;51290;45.060;38.948;2023-08-20T01:13:09;5.00;;;4.03;;
64832;SDS011;51290;45.060;38.948;2023-08-20T01:15:35;7.80;;;4.22;;
64832;SDS011;51290;45.060;38.948;2023-08-20T01:18:07;7.05;;;3.80;;
64832;SDS011;51290;45.060;38.948;2023-08-20T01:20:36;9.88;;;3.90;;
64832;SDS011;51290;45.060;38.948;2023-08-20T01:23:13;7.43;;;4.00;;
64832;SDS011;51290;45.060;38.948;2023-08-20T01:28:34;9.00;;;4.20;;
64832;SDS011;51290;45.060;38.948;2023-08-20T01:31:02;12.40;;;4.13;;
64832;SDS011;51290;45.060;38.948;2023-08-20T01:33:29;7.50;;;4.32;;
64832;SDS011;51290;45.060;38.948;2023-08-20T01:35:57;8.65;;;4.70;;
64832;SDS011;51290;45.060;38.948;2023-08-20T01:38:23;6.82;;;3.97;;
64832;SDS011;51290;45.060;38.948;2023-08-20T01:40:49;7.20;;;3.95;;
64832;SDS011;51290;45.060;38.948;2023-08-20T01:43:15;5.68;;;3.60;;
64832;SDS011;51290;45.060;38.948;2023-08-20T01:45:41;11.13;;;4.30;;
64832;SDS011;51290;45.060;38.948;2023-08-20T01:48:07;10.15;;;4.15;;
64832;SDS011;51290;45.060;38.948;2023-08-20T01:50:34;10.73;;;3.95;;
64832;SDS011;51290;45.060;38.948;2023-08-20T01:53:01;8.57;;;4.43;;
64832;SDS011;51290;45.060;38.948;2023-08-20T01:55:30;9.15;;;3.88;;
64832;SDS011;51290;45.060;38.948;2023-08-20T01:57:56;8.38;;;3.80;;
64832;SDS011;51290;45.060;38.948;2023-08-20T02:00:22;9.75;;;4.13;;
64832;SDS011;51290;45.060;38.948;2023-08-20T02:02:48;6.45;;;3.70;;
64832;SDS011;51290;45.060;38.948;2023-08-20T02:05:14;8.80;;;4.20;;
64832;SDS011;51290;45.060;38.948;2023-08-20T02:07:41;8.77;;;4.38;;
64832;SDS011;51290;45.060;38.948;2023-08-20T02:10:07;8.82;;;4.20;;
64832;SDS011;51290;45.060;38.948;2023-08-20T02:12:34;8.65;;;4.47;;
64832;SDS011;51290;45.060;38.948;2023-08-20T02:15:00;7.18;;;3.90;;
64832;SDS011;51290;45.060;38.948;2023-08-20T02:17:26;6.60;;;4.03;;
64832;SDS011;51290;45.060;38.948;2023-08-20T02:19:52;8.85;;;4.20;;
64832;SDS011;51290;45.060;38.948;2023-08-20T02:22:18;6.53;;;4.10;;
64832;SDS011;51290;45.060;38.948;2023-08-20T02:24:46;7.82;;;4.07;;
64832;SDS011;51290;45.060;38.948;2023-08-20T02:27:15;8.48;;;4.10;;
64832;SDS011;51290;45.060;38.948;2023-08-20T02:29:43;14.60;;;4.28;;
64832;SDS011;51290;45.060;38.948;2023-08-20T02:32:14;9.93;;;4.00;;
64832;SDS011;51290;45.060;38.948;2023-08-20T02:34:54;7.95;;;4.15;;
64832;SDS011;51290;45.060;38.948;2023-08-20T02:37:24;8.07;;;4.43;;
64832;SDS011;51290;45.060;38.948;2023-08-20T02:39:50;8.25;;;4.40;;
64832;SDS011;51290;45.060;38.948;2023-08-20T02:42:16;6.45;;;3.85;;
64832;SDS011;51290;45.060;38.948;2023-08-20T02:44:43;8.57;;;4.72;;
64832;SDS011;51290;45.060;38.948;2023-08-20T02:47:12;10.25;;;4.20;;
64832;SDS011;51290;45.060;38.948;2023-08-20T02:49:38;8.77;;;4.45;;
64832;SDS011;51290;45.060;38.948;2023-08-20T02:52:04;8.05;;;4.20;;
64832;SDS011;51290;45.060;38.948;2023-08-20T02:54:30;5.50;;;3.53;;
64832;SDS011;51290;45.060;38.948;2023-08-20T02:56:58;9.20;;;4.50;;
64832;SDS011;51290;45.060;38.948;2023-08-20T02:59:24;8.32;;;3.90;;
64832;SDS011;51290;45.060;38.948;2023-08-20T03:01:50;13.38;;;4.30;;
64832;SDS011;51290;45.060;38.948;2023-08-20T03:04:16;8.75;;;4.70;;
64832;SDS011;51290;45.060;38.948;2023-08-20T03:06:42;8.52;;;4.15;;
64832;SDS011;51290;45.060;38.948;2023-08-20T03:09:09;9.70;;;5.10;;
64832;SDS011;51290;45.060;38.948;2023-08-20T03:11:35;9.18;;;4.60;;
64832;SDS011;51290;45.060;38.948;2023-08-20T03:14:01;10.60;;;4.65;;
64832;SDS011;51290;45.060;38.948;2023-08-20T03:16:27;8.25;;;4.32;;
64832;SDS011;51290;45.060;38.948;2023-08-20T03:18:53;9.45;;;4.35;;
64832;SDS011;51290;45.060;38.948;2023-08-20T03:21:20;8.70;;;4.63;;
64832;SDS011;51290;45.060;38.948;2023-08-20T03:23:46;10.70;;;4.38;;
64832;SDS011;51290;45.060;38.948;2023-08-20T03:26:12;9.18;;;4.30;;
64832;SDS011;51290;45.060;38.948;2023-08-20T03:28:38;10.15;;;4.65;;
64832;SDS011;51290;45.060;38.948;2023-08-20T03:31:04;9.48;;;4.63;;
64832;SDS011;51290;45.060;38.948;2023-08-20T03:33:35;8.95;;;4.47;;
64832;SDS011;51290;45.060;38.948;2023-08-20T03:36:01;9.57;;;4.85;;
64832;SDS011;51290;45.060;38.948;2023-08-20T03:38:27;10.90;;;4.90;;
64832;SDS011;51290;45.060;38.948;2023-08-20T03:40:54;8.32;;;4.68;;
64832;SDS011;51290;45.060;38.948;2023-08-20T03:43:20;8.05;;;4.45;;
64832;SDS011;51290;45.060;38.948;2023-08-20T03:45:49;6.97;;;4.85;;
64832;SDS011;51290;45.060;38.948;2023-08-20T03:48:18;14.10;;;4.80;;
64832;SDS011;51290;45.060;38.948;2023-08-20T03:50:46;14.30;;;4.75;;
64832;SDS011;51290;45.060;38.948;2023-08-20T03:53:12;9.07;;;5.05;;
64832;SDS011;51290;45.060;38.948;2023-08-20T03:55:38;10.23;;;4.85;;
64832;SDS011;51290;45.060;38.948;2023-08-20T03:58:04;7.65;;;4.80;;
64832;SDS011;51290;45.060;38.948;2023-08-20T04:00:30;10.18;;;4.85;;
64832;SDS011;51290;45.060;38.948;2023-08-20T04:02:56;9.88;;;4.63;;
64832;SDS011;51290;45.060;38.948;2023-08-20T04:05:22;8.65;;;4.93;;
64832;SDS011;51290;45.060;38.948;2023-08-20T04:07:49;7.13;;;4.18;;
64832;SDS011;51290;45.060;38.948;2023-08-20T04:10:15;9.98;;;4.90;;
64832;SDS011;51290;45.060;38.948;2023-08-20T04:12:43;10.98;;;4.47;;
64832;SDS011;51290;45.060;38.948;2023-08-20T04:15:09;10.50;;;5.20;;
64832;SDS011;51290;45.060;38.948;2023-08-20T04:17:39;8.07;;;4.90;;
64832;SDS011;51290;45.060;38.948;2023-08-20T04:20:05;6.93;;;4.50;;
64832;SDS011;51290;45.060;38.948;2023-08-20T04:22:34;11.63;;;5.10;;
64832;SDS011;51290;45.060;38.948;2023-08-20T04:27:35;10.73;;;5.32;;
64832;SDS011;51290;45.060;38.948;2023-08-20T04:30:01;9.93;;;5.10;;
64832;SDS011;51290;45.060;38.948;2023-08-20T04:32:28;9.32;;;4.63;;
64832;SDS011;51290;45.060;38.948;2023-08-20T04:34:54;11.35;;;5.70;;
64832;SDS011;51290;45.060;38.948;2023-08-20T04:37:21;6.88;;;4.63;;
64832;SDS011;51290;45.060;38.948;2023-08-20T04:39:47;10.15;;;4.72;;
64832;SDS011;51290;45.060;38.948;2023-08-20T04:42:14;8.40;;;4.43;;
64832;SDS011;51290;45.060;38.948;2023-08-20T04:44:40;6.97;;;4.45;;
64832;SDS011;51290;45.060;38.948;2023-08-20T04:47:10;10.15;;;5.03;;
64832;SDS011;51290;45.060;38.948;2023-08-20T04:49:38;11.90;;;5.40;;
64832;SDS011;51290;45.060;38.948;2023-08-20T04:52:05;11.63;;;5.10;;
64832;SDS011;51290;45.060;38.948;2023-08-20T04:54:31;9.15;;;5.07;;
64832;SDS011;51290;45.060;38.948;2023-08-20T04:56:57;11.70;;;5.20;;
64832;SDS011;51290;45.060;38.948;2023-08-20T04:59:23;8.75;;;4.95;;
64832;SDS011;51290;45.060;38.948;2023-08-20T05:01:49;13.43;;;5.07;;
64832;SDS011;51290;45.060;38.948;2023-08-20T05:04:18;9.20;;;4.90;;
64832;SDS011;51290;45.060;38.948;2023-08-20T05:06:44;12.38;;;5.25;;
64832;SDS011;51290;45.060;38.948;2023-08-20T05:09:10;6.85;;;4.78;;
64832;SDS011;51290;45.060;38.948;2023-08-20T05:11:37;6.60;;;4.30;;
64832;SDS011;51290;45.060;38.948;2023-08-20T05:14:03;14.52;;;4.57;;
64832;SDS011;51290;45.060;38.948;2023-08-20T05:16:29;10.10;;;4.90;;
64832;SDS011;51290;45.060;38.948;2023-08-20T05:18:55;7.45;;;4.63;;
64832;SDS011;51290;45.060;38.948;2023-08-20T05:21:22;10.38;;;4.65;;
64832;SDS011;51290;45.060;38.948;2023-08-20T05:23:48;8.10;;;5.18;;
64832;SDS011;51290;45.060;38.948;2023-08-20T05:26:15;8.45;;;4.63;;
64832;SDS011;51290;45.060;38.948;2023-08-20T05:28:42;8.45;;;4.20;;
64832;SDS011;51290;45.060;38.948;2023-08-20T05:31:09;13.30;;;4.45;;
64832;SDS011;51290;45.060;38.948;2023-08-20T05:33:38;8.50;;;4.57;;
64832;SDS011;51290;45.060;38.948;2023-08-20T05:36:04;7.70;;;4.45;;
64832;SDS011;51290;45.060;38.948;2023-08-20T05:38:30;8.23;;;4.70;;
64832;SDS011;51290;45.060;38.948;2023-08-20T05:40:56;8.25;;;4.88;;
64832;SDS011;51290;45.060;38.948;2023-08-20T05:43:22;10.88;;;4.72;;
64832;SDS011;51290;45.060;38.948;2023-08-20T05:45:49;8.35;;;4.50;;
64832;SDS011;51290;45.060;38.948;2023-08-20T05:48:20;12.38;;;4.22;;
64832;SDS011;51290;45.060;38.948;2023-08-20T05:50:46;9.32;;;4.50;;
64832;SDS011;51290;45.060;38.948;2023-08-20T05:53:12;7.00;;;4.47;;
64832;SDS011;51290;45.060;38.948;2023-08-20T05:55:38;7.97;;;4.47;;
64832;SDS011;51290;45.060;38.948;2023-08-20T05:58:07;9.27;;;4.20;;
64832;SDS011;51290;45.060;38.948;2023-08-20T06:00:33;11.40;;;4.85;;
64832;SDS011;51290;45.060;38.948;2023-08-20T06:03:00;9.00;;;4.53;;
64832;SDS011;51290;45.060;38.948;2023-08-20T06:05:26;9.57;;;4.95;;
64832;SDS011;51290;45.060;38.948;2023-08-20T06:07:52;13.75;;;4.03;;
64832;SDS011;51290;45.060;38.948;2023-08-20T06:10:18;6.50;;;4.13;;
64832;SDS011;51290;45.060;38.948;2023-08-20T06:12:44;9.98;;;4.28;;
64832;SDS011;51290;45.060;38.948;2023-08-20T06:15:11;5.65;;;3.80;;
64832;SDS011;51290;45.060;38.948;2023-08-20T06:17:36;9.82;;;4.13;;
64832;SDS011;51290;45.060;38.948;2023-08-20T06:20:03;8.02;;;4.50;;
64832;SDS011;51290;45.060;38.948;2023-08-20T06:22:34;6.45;;;4.05;;
64832;SDS011;51290;45.060;38.948;2023-08-20T06:25:17;7.05;;;4.03;;
64832;SDS011;51290;45.060;38.948;2023-08-20T06:27:43;6.60;;;4.15;;
64832;SDS011;51290;45.060;38.948;2023-08-20T06:30:09;10.90;;;4.25;;
64832;SDS011;51290;45.060;38.948;2023-08-20T06:32:36;8.88;;;3.78;;
64832;SDS011;51290;45.060;38.948;2023-08-20T06:35:02;10.80;;;4.35;;
64832;SDS011;51290;45.060;38.948;2023-08-20T06:37:28;8.80;;;4.00;;
64832;SDS011;51290;45.060;38.948;2023-08-20T06:39:54;8.85;;;4.30;;
64832;SDS011;51290;45.060;38.948;2023-08-20T06:42:25;7.72;;;3.97;;
64832;SDS011;51290;45.060;38.948;2023-08-20T06:44:51;10.68;;;4.13;;
64832;SDS011;51290;45.060;38.948;2023-08-20T06:47:17;8.18;;;4.47;;
64832;SDS011;51290;45.060;38.948;2023-08-20T06:49:43;8.27;;;3.55;;
64832;SDS011;51290;45.060;38.948;2023-08-20T06:52:08;7.30;;;4.40;;
64832;SDS011;51290;45.060;38.948;2023-08-20T06:54:35;6.95;;;4.07;;
64832;SDS011;51290;45.060;38.948;2023-08-20T06:57:00;5.93;;;3.60;;
64832;SDS011;51290;45.060;38.948;2023-08-20T06:59:26;7.25;;;4.65;;
64832;SDS011;51290;45.060;38.948;2023-08-20T07:01:54;8.82;;;4.25;;
64832;SDS011;51290;45.060;38.948;2023-08-20T07:04:20;5.53;;;3.50;;
64832;SDS011;51290;45.060;38.948;2023-08-20T07:06:46;10.15;;;4.70;;
64832;SDS011;51290;45.060;38.948;2023-08-20T07:09:12;6.53;;;3.75;;
64832;SDS011;51290;45.060;38.948;2023-08-20T07:11:38;7.80;;;4.00;;
64832;SDS011;51290;45.060;38.948;2023-08-20T07:14:04;6.28;;;3.60;;
64832;SDS011;51290;45.060;38.948;2023-08-20T07:16:30;7.53;;;4.03;;
64832;SDS011;51290;45.060;38.948;2023-08-20T07:18:57;13.63;;;3.67;;
64832;SDS011;51290;45.060;38.948;2023-08-20T07:21:23;10.50;;;3.85;;
64832;SDS011;51290;45.060;38.948;2023-08-20T07:23:49;6.10;;;3.85;;
64832;SDS011;51290;45.060;38.948;2023-08-20T07:26:15;6.28;;;3.78;;
64832;SDS011;51290;45.060;38.948;2023-08-20T07:28:41;9.90;;;4.35;;
64832;SDS011;51290;45.060;38.948;2023-08-20T07:31:22;7.40;;;4.47;;
64832;SDS011;51290;45.060;38.948;2023-08-20T07:33:50;6.53;;;3.83;;
64832;SDS011;51290;45.060;38.948;2023-08-20T07:36:17;4.97;;;3.53;;
64832;SDS011;51290;45.060;38.948;2023-08-20T07:38:50;6.20;;;3.67;;
64832;SDS011;51290;45.060;38.948;2023-08-20T07:41:17;9.13;;;4.20;;
64832;SDS011;51290;45.060;38.948;2023-08-20T07:43:45;4.60;;;3.58;;
64832;SDS011;51290;45.060;38.948;2023-08-20T07:46:11;5.93;;;3.63;;
64832;SDS011;51290;45.060;38.948;2023-08-20T07:48:38;16.15;;;4.07;;
64832;SDS011;51290;45.060;38.948;2023-08-20T07:51:04;7.88;;;4.07;;
64832;SDS011;51290;45.060;38.948;2023-08-20T07:53:30;10.65;;;3.97;;
64832;SDS011;51290;45.060;38.948;2023-08-20T07:55:57;8.70;;;4.03;;
64832;SDS011;51290;45.060;38.948;2023-08-20T07:58:24;5.82;;;3.33;;
64832;SDS011;51290;45.060;38.948;2023-08-20T08:01:13;4.72;;;3.55;;
64832;SDS011;51290;45.060;38.948;2023-08-20T08:03:40;5.50;;;3.55;;
64832;SDS011;51290;45.060;38.948;2023-08-20T08:06:06;6.43;;;3.63;;
64832;SDS011;51290;45.060;38.948;2023-08-20T08:08:32;7.55;;;3.80;;
64832;SDS011;51290;45.060;38.948;2023-08-20T08:10:58;7.32;;;4.00;;
64832;SDS011;51290;45.060;38.948;2023-08-20T08:13:24;12.82;;;3.58;;
64832;SDS011;51290;45.060;38.948;2023-08-20T08:15:50;12.82;;;4.00;;
64832;SDS011;51290;45.060;38.948;2023-08-20T08:18:17;10.55;;;3.97;;
64832;SDS011;51290;45.060;38.948;2023-08-20T08:20:44;5.57;;;3.13;;
64832;SDS011;51290;45.060;38.948;2023-08-20T08:23:10;4.75;;;3.30;;
64832;SDS011;51290;45.060;38.948;2023-08-20T08:25:36;13.20;;;4.40;;
64832;SDS011;51290;45.060;38.948;2023-08-20T08:28:03;7.68;;;3.60;;
64832;SDS011;51290;45.060;38.948;2023-08-20T08:30:31;10.93;;;3.65;;
64832;SDS011;51290;45.060;38.948;2023-08-20T08:32:57;7.55;;;3.38;;
64832;SDS011;51290;45.060;38.948;2023-08-20T08:35:24;7.20;;;3.30;;
64832;SDS011;51290;45.060;38.948;2023-08-20T08:37:50;8.80;;;3.40;;
64832;SDS011;51290;45.060;38.948;2023-08-20T08:40:16;9.73;;;3.60;;
64832;SDS011;51290;45.060;38.948;2023-08-20T08:42:42;5.47;;;3.38;;
64832;SDS011;51290;45.060;38.948;2023-08-20T08:45:20;10.52;;;3.40;;
64832;SDS011;51290;45.060;38.948;2023-08-20T08:47:47;12.55;;;3.88;;
64832;SDS011;51290;45.060;38.948;2023-08-20T08:50:15;6.40;;;3.30;;
64832;SDS011;51290;45.060;38.948;2023-08-20T08:52:41;5.18;;;3.10;;
64832;SDS011;51290;45.060;38.948;2023-08-20T08:55:10;5.05;;;3.20;;
64832;SDS011;51290;45.060;38.948;2023-08-20T08:57:37;9.48;;;3.50;;
64832;SDS011;51290;45.060;38.948;2023-08-20T09:00:05;3.08;;;2.55;;
64832;SDS011;51290;45.060;38.948;2023-08-20T09:02:33;9.35;;;3.45;;
64832;SDS011;51290;45.060;38.948;2023-08-20T09:05:05;9.35;;;3.10;;
64832;SDS011;51290;45.060;38.948;2023-08-20T09:07:31;7.60;;;3.53;;
64832;SDS011;51290;45.060;38.948;2023-08-20T09:09:58;7.50;;;2.97;;
64832;SDS011;51290;45.060;38.948;2023-08-20T09:12:28;11.02;;;4.00;;
64832;SDS011;51290;45.060;38.948;2023-08-20T09:15:09;13.32;;;3.88;;
64832;SDS011;51290;45.060;38.948;2023-08-20T09:17:36;6.75;;;3.80;;
64832;SDS011;51290;45.060;38.948;2023-08-20T09:20:02;4.13;;;3.03;;
64832;SDS011;51290;45.060;38.948;2023-08-20T09:22:28;17.02;;;3.80;;
64832;SDS011;51290;45.060;38.948;2023-08-20T09:24:55;11.55;;;3.92;;
64832;SDS011;51290;45.060;38.948;2023-08-20T09:27:22;9.43;;;3.63;;
64832;SDS011;51290;45.060;38.948;2023-08-20T09:32:19;5.38;;;3.40;;
64832;SDS011;51290;45.060;38.948;2023-08-20T09:53:26;7.55;;;3.50;;
64832;SDS011;51290;45.060;38.948;2023-08-20T09:56:35;5.93;;;3.58;;
64832;SDS011;51290;45.060;38.948;2023-08-20T09:59:03;6.18;;;4.13;;
64832;SDS011;51290;45.060;38.948;2023-08-20T10:01:30;7.30;;;3.80;;
64832;SDS011;51290;45.060;38.948;2023-08-20T10:03:56;8.02;;;3.72;;
64832;SDS011;51290;45.060;38.948;2023-08-20T10:06:25;6.25;;;3.83;;
64832;SDS011;51290;45.060;38.948;2023-08-20T10:08:51;9.23;;;3.75;;
64832;SDS011;51290;45.060;38.948;2023-08-20T10:11:19;9.05;;;4.75;;
64832;SDS011;51290;45.060;38.948;2023-08-20T10:13:45;9.35;;;4.22;;
64832;SDS011;51290;45.060;38.948;2023-08-20T10:16:16;8.57;;;4.68;;
64832;SDS011;51290;45.060;38.948;2023-08-20T10:18:46;11.05;;;4.75;;
64832;SDS011;51290;45.060;38.948;2023-08-20T10:21:12;16.77;;;5.13;;
64832;SDS011;51290;45.060;38.948;2023-08-20T10:23:41;14.15;;;6.22;;
64832;SDS011;51290;45.060;38.948;2023-08-20T10:28:39;8.48;;;4.40;;
64832;SDS011;51290;45.060;38.948;2023-08-20T10:31:07;8.63;;;4.60;;
64832;SDS011;51290;45.060;38.948;2023-08-20T10:36:17;10.80;;;4.80;;
64832;SDS011;51290;45.060;38.948;2023-08-20T10:38:48;7.28;;;4.18;;
64832;SDS011;51290;45.060;38.948;2023-08-20T10:41:15;8.20;;;5.00;;
64832;SDS011;51290;45.060;38.948;2023-08-20T10:43:47;8.63;;;5.20;;
64832;SDS011;51290;45.060;38.948;2023-08-20T10:48:47;10.43;;;5.25;;
64832;SDS011;51290;45.060;38.948;2023-08-20T11:01:43;9.40;;;5.90;;
64832;SDS011;51290;45.060;38.948;2023-08-20T11:04:10;11.13;;;6.47;;
64832;SDS011;51290;45.060;38.948;2023-08-20T11:06:38;9.98;;;6.13;;
64832;SDS011;51290;45.060;38.948;2023-08-20T11:09:04;9.82;;;5.88;;
64832;SDS011;51290;45.060;38.948;2023-08-20T11:11:31;7.47;;;5.60;;
64832;SDS011;51290;45.060;38.948;2023-08-20T11:14:17;12.70;;;6.18;;
64832;SDS011;51290;45.060;38.948;2023-08-20T11:16:45;10.63;;;5.68;;
64832;SDS011;51290;45.060;38.948;2023-08-20T11:19:12;7.05;;;5.03;;
64832;SDS011;51290;45.060;38.948;2023-08-20T11:21:39;8.02;;;5.40;;
64832;SDS011;51290;45.060;38.948;2023-08-20T11:24:07;11.18;;;5.63;;
64832;SDS011;51290;45.060;38.948;2023-08-20T11:26:34;9.07;;;4.88;;
64832;SDS011;51290;45.060;38.948;2023-08-20T11:29:05;15.50;;;6.03;;
64832;SDS011;51290;45.060;38.948;2023-08-20T11:31:35;10.52;;;5.60;;
64832;SDS011;51290;45.060;38.948;2023-08-20T11:34:02;8.20;;;5.25;;
64832;SDS011;51290;45.060;38.948;2023-08-20T11:36:29;10.65;;;5.72;;
64832;SDS011;51290;45.060;38.948;2023-08-20T11:38:55;11.68;;;5.65;;
64832;SDS011;51290;45.060;38.948;2023-08-20T11:41:21;12.52;;;5.03;;
64832;SDS011;51290;45.060;38.948;2023-08-20T11:43:49;11.85;;;5.30;;
64832;SDS011;51290;45.060;38.948;2023-08-20T11:46:17;12.15;;;4.85;;
64832;SDS011;51290;45.060;38.948;2023-08-20T11:54:13;5.70;;;4.20;;
64832;SDS011;51290;45.060;38.948;2023-08-20T11:56:44;8.25;;;4.10;;
64832;SDS011;51290;45.060;38.948;2023-08-20T11:59:15;12.43;;;4.93;;
64832;SDS011;51290;45.060;38.948;2023-08-20T12:01:42;8.13;;;4.13;;
64832;SDS011;51290;45.060;38.948;2023-08-20T12:04:09;6.18;;;4.00;;
64832;SDS011;51290;45.060;38.948;2023-08-20T12:06:36;4.68;;;3.58;;
64832;SDS011;51290;45.060;38.948;2023-08-20T12:09:22;4.97;;;3.28;;
64832;SDS011;51290;45.060;38.948;2023-08-20T12:11:49;11.00;;;4.30;;
64832;SDS011;51290;45.060;38.948;2023-08-20T12:14:16;6.82;;;3.80;;
64832;SDS011;51290;45.060;38.948;2023-08-20T12:16:46;7.78;;;4.35;;
64832;SDS011;51290;45.060;38.948;2023-08-20T12:19:12;6.43;;;4.43;;
64832;SDS011;51290;45.060;38.948;2023-08-20T12:21:39;5.72;;;3.75;;
64832;SDS011;51290;45.060;38.948;2023-08-20T12:24:08;8.73;;;4.03;;
64832;SDS011;51290;45.060;38.948;2023-08-20T12:26:37;4.63;;;3.20;;
64832;SDS011;51290;45.060;38.948;2023-08-20T12:29:04;8.45;;;3.60;;
64832;SDS011;51290;45.060;38.948;2023-08-20T12:31:34;7.35;;;3.38;;
64832;SDS011;51290;45.060;38.948;2023-08-20T12:34:00;15.25;;;3.80;;
64832;SDS011;51290;45.060;38.948;2023-08-20T12:36:28;4.93;;;3.25;;
64832;SDS011;51290;45.060;38.948;2023-08-20T12:38:54;4.47;;;3.08;;
64832;SDS011;51290;45.060;38.948;2023-08-20T12:41:21;5.18;;;2.97;;
64832;SDS011;51290;45.060;38.948;2023-08-20T12:43:47;5.50;;;3.22;;
64832;SDS011;51290;45.060;38.948;2023-08-20T12:46:13;5.32;;;2.70;;
64832;SDS011;51290;45.060;38.948;2023-08-20T12:48:40;4.47;;;3.20;;
64832;SDS011;51290;45.060;38.948;2023-08-20T12:51:06;23.58;;;4.00;;
64832;SDS011;51290;45.060;38.948;2023-08-20T12:53:33;6.22;;;3.08;;
64832;SDS011;51290;45.060;38.948;2023-08-20T12:55:59;9.30;;;2.85;;
64832;SDS011;51290;45.060;38.948;2023-08-20T12:58:25;4.82;;;2.80;;
64832;SDS011;51290;45.060;38.948;2023-08-20T13:00:51;4.22;;;2.75;;
64832;SDS011;51290;45.060;38.948;2023-08-20T13:03:17;4.65;;;3.13;;
64832;SDS011;51290;45.060;38.948;2023-08-20T13:05:44;5.47;;;2.85;;
64832;SDS011;51290;45.060;38.948;2023-08-20T13:08:10;4.85;;;2.70;;
64832;SDS011;51290;45.060;38.948;2023-08-20T13:10:40;5.28;;;3.10;;
64832;SDS011;51290;45.060;38.948;2023-08-20T13:13:09;6.00;;;2.80;;
64832;SDS011;51290;45.060;38.948;2023-08-20T13:15:36;5.93;;;2.85;;
64832;SDS011;51290;45.060;38.948;2023-08-20T13:18:02;6.97;;;2.58;;
64832;SDS011;51290;45.060;38.948;2023-08-20T13:20:29;2.90;;;2.60;;
64832;SDS011;51290;45.060;38.948;2023-08-20T13:22:55;8.43;;;2.72;;
64832;SDS011;51290;45.060;38.948;2023-08-20T13:25:21;6.47;;;2.88;;
64832;SDS011;51290;45.060;38.948;2023-08-20T13:27:47;6.43;;;2.80;;
64832;SDS011;51290;45.060;38.948;2023-08-20T13:30:13;7.82;;;2.90;;
64832;SDS011;51290;45.060;38.948;2023-08-20T13:32:39;7.93;;;3.35;;
64832;SDS011;51290;45.060;38.948;2023-08-20T13:35:05;7.15;;;3.40;;
64832;SDS011;51290;45.060;38.948;2023-08-20T13:37:33;5.90;;;3.70;;
64832;SDS011;51290;45.060;38.948;2023-08-20T13:40:00;5.63;;;3.50;;
64832;SDS011;51290;45.060;38.948;2023-08-20T13:42:26;5.53;;;3.38;;
64832;SDS011;51290;45.060;38.948;2023-08-20T13:44:53;15.73;;;3.90;;
64832;SDS011;51290;45.060;38.948;2023-08-20T13:47:19;4.47;;;3.22;;
64832;SDS011;51290;45.060;38.948;2023-08-20T13:49:44;6.80;;;3.85;;
64832;SDS011;51290;45.060;38.948;2023-08-20T13:52:10;9.35;;;4.32;;
64832;SDS011;51290;45.060;38.948;2023-08-20T13:54:37;9.88;;;3.65;;
64832;SDS011;51290;45.060;38.948;2023-08-20T13:57:03;6.57;;;3.28;;
64832;SDS011;51290;45.060;38.948;2023-08-20T13:59:30;7.90;;;3.80;;
64832;SDS011;51290;45.060;38.948;2023-08-20T14:01:56;4.30;;;3.22;;
64832;SDS011;51290;45.060;38.948;2023-08-20T14:04:23;11.45;;;3.30;;
64832;SDS011;51290;45.060;38.948;2023-08-20T14:06:49;6.13;;;3.22;;
64832;SDS011;51290;45.060;38.948;2023-08-20T14:09:14;6.35;;;3.35;;
64832;SDS011;51290;45.060;38.948;2023-08-20T14:11:43;5.22;;;3.60;;
64832;SDS011;51290;45.060;38.948;2023-08-20T14:14:09;8.48;;;3.53;;
64832;SDS011;51290;45.060;38.948;2023-08-20T14:16:35;7.85;;;3.97;;
64832;SDS011;51290;45.060;38.948;2023-08-20T14:19:01;5.15;;;3.45;;
64832;SDS011;51290;45.060;38.948;2023-08-20T14:21:27;4.68;;;3.13;;
64832;SDS011;51290;45.060;38.948;2023-08-20T14:23:53;6.72;;;3.63;;
64832;SDS011;51290;45.060;38.948;2023-08-20T14:26:19;6.05;;;3.53;;
64832;SDS011;51290;45.060;38.948;2023-08-20T14:28:45;9.50;;;4.47;;
64832;SDS011;51290;45.060;38.948;2023-08-20T14:31:11;8.88;;;4.30;;
64832;SDS011;51290;45.060;38.948;2023-08-20T14:33:37;8.23;;;4.30;;
64832;SDS011;51290;45.060;38.948;2023-08-20T14:36:03;6.78;;;4.28;;
64832;SDS011;51290;45.060;38.948;2023-08-20T14:38:29;6.15;;;4.03;;
64832;SDS011;51290;45.060;38.948;2023-08-20T14:41:02;8.52;;;4.45;;
64832;SDS011;51290;45.060;38.948;2023-08-20T14:43:29;10.10;;;5.40;;
64832;SDS011;51290;45.060;38.948;2023-08-20T14:45:55;9.85;;;5.35;;
64832;SDS011;51290;45.060;38.948;2023-08-20T14:48:22;13.05;;;6.43;;
64832;SDS011;51290;45.060;38.948;2023-08-20T14:50:49;11.50;;;5.32;;
64832;SDS011;51290;45.060;38.948;2023-08-20T14:53:17;8.27;;;5.93;;
64832;SDS011;51290;45.060;38.948;2023-08-20T14:55:44;14.45;;;5.97;;
64832;SDS011;51290;45.060;38.948;2023-08-20T14:58:10;9.10;;;6.57;;
64832;SDS011;51290;45.060;38.948;2023-08-20T15:00:37;10.30;;;6.28;;
64832;SDS011;51290;45.060;38.948;2023-08-20T15:03:03;10.02;;;7.05;;
64832;SDS011;51290;45.060;38.948;2023-08-20T15:05:32;12.18;;;6.13;;
64832;SDS011;51290;45.060;38.948;2023-08-20T15:07:58;15.75;;;6.85;;
64832;SDS011;51290;45.060;38.948;2023-08-20T15:10:24;11.90;;;6.60;;
64832;SDS011;51290;45.060;38.948;2023-08-20T15:12:50;9.48;;;6.57;;
64832;SDS011;51290;45.060;38.948;2023-08-20T15:15:16;12.98;;;6.70;;
64832;SDS011;51290;45.060;38.948;2023-08-20T15:17:42;13.18;;;6.55;;
64832;SDS011;51290;45.060;38.948;2023-08-20T15:20:08;14.05;;;6.75;;
64832;SDS011;51290;45.060;38.948;2023-08-20T15:22:38;9.57;;;6.45;;
64832;SDS011;51290;45.060;38.948;2023-08-20T15:25:04;13.88;;;6.55;;